Kinglassie, United Kingdom
Current Conditions -  °F | °C
As of 4:50 PM on Saturday 25 Oct 2014 (Local Time) from EGPH Reporting Station
Scattered Clouds Scattered Clouds  
Wind Chill: 54°   Ceiling: Unl
Heat Index: 54°   Visibility: 6mi
Dew Point: 43°   Wind: 28mph
Humidity: 67%   Direction: 230°SW
Pressure: 29.68"   Gusts: 46mph
Location:  56.17°N, 3.24°W
Report Text: EGPH 251550Z 23024G40KT 9999 SCT034 12/06 Q1005
Loading
Personal Weather Stations






























Interactive Weather Map
Tropical Storm Tracking
New forecast layout! Learn more

10-Day Weather Forecast

Advertisements
Track Severe Weather on mobile